Time;durP1;ratioP1;P1;durP2;ratioP2;P2;SDS_P1;SDS_P2;PMS_P1;PMS_P2;Temp;Humidity;BMP_temperature;BMP_pressure;BME280_temperature;BME280_humidity;BME280_pressure;Samples;Min_cycle;Max_cycle;Signal;HPM_P1;HPM_P2
2021/10/31 00:04:28;;;;;;;25.60;13.60;;;;;;;9.50;53.94;99079.13;236428;1195;138439;-60
2021/10/31 00:09:31;;;;;;;23.70;13.40;;;;;;;9.44;53.79;99078.78;236359;1194;139287;-60
2021/10/31 00:14:34;;;;;;;22.20;13.60;;;;;;;9.41;53.98;99075.59;236422;1194;139228;-58
2021/10/31 00:19:37;;;;;;;23.50;13.20;;;;;;;9.34;54.02;99081.87;236231;1195;138799;-62
2021/10/31 00:24:41;;;;;;;21.30;12.50;;;;;;;9.24;54.14;99079.55;236169;1195;140368;-61
2021/10/31 00:29:44;;;;;;;22.40;13.00;;;;;;;9.16;54.27;99092.90;236253;1195;138960;-61
2021/10/31 00:34:47;;;;;;;21.80;13.10;;;;;;;9.08;54.34;99099.02;235253;1196;139337;-60
2021/10/31 00:39:50;;;;;;;22.00;12.90;;;;;;;9.06;54.47;99102.85;235429;1196;138703;-59
2021/10/31 00:44:53;;;;;;;23.70;13.10;;;;;;;9.04;54.60;99096.44;236206;1195;138408;-60
2021/10/31 00:49:56;;;;;;;25.40;14.90;;;;;;;8.98;54.62;99091.11;236277;1195;139372;-60
2021/10/31 00:55:00;;;;;;;22.30;13.10;;;;;;;8.89;54.98;99084.15;236323;1195;138817;-61
2021/10/31 01:00:05;;;;;;;27.50;13.90;;;;;;;8.82;55.12;99083.85;236492;1195;138514;-60
2021/10/31 01:05:13;;;;;;;21.60;12.60;;;;;;;8.78;55.19;99080.66;236270;1195;138955;-60
2021/10/31 01:10:54;;;;;;;21.20;12.70;;;;;;;8.75;55.14;99086.80;236297;1195;138890;-57
2021/10/31 01:16:20;;;;;;;22.80;12.10;;;;;;;8.75;55.35;99087.73;236415;1195;138693;-59
2021/10/31 01:21:42;;;;;;;;;;;;;;;8.72;55.35;99083.46;236304;1195;138163;-60
2021/10/31 01:26:54;;;;;;;22.10;13.30;;;;;;;8.68;55.42;99084.54;236456;1195;124535;-58
2021/10/31 01:32:25;;;;;;;20.80;13.10;;;;;;;8.65;55.50;99091.45;236325;1195;139232;-59
2021/10/31 01:37:41;;;;;;;25.30;13.60;;;;;;;8.62;55.50;99100.80;236115;1195;138790;-59
2021/10/31 01:42:53;;;;;;;20.90;12.50;;;;;;;8.58;55.56;99102.59;235866;1195;138469;-60
2021/10/31 01:48:21;;;;;;;22.70;12.70;;;;;;;8.55;55.75;99096.78;236368;1195;138276;-59
2021/10/31 01:53:34;;;;;;;19.80;12.10;;;;;;;8.52;55.75;99095.87;236275;1195;138636;-60
2021/10/31 01:58:43;;;;;;;27.30;12.50;;;;;;;8.51;55.95;99096.42;235986;1195;138713;-61
2021/10/31 02:03:48;;;;;;;20.40;10.90;;;;;;;8.53;56.14;99088.71;235803;1194;138531;-61
2021/10/31 02:08:53;;;;;;;17.70;11.90;;;;;;;8.56;56.15;99077.98;235789;1195;139390;-62
2021/10/31 02:14:00;;;;;;;20.40;11.40;;;;;;;8.56;56.11;99083.65;236399;1195;138985;-61
2021/10/31 02:19:08;;;;;;;19.00;10.60;;;;;;;8.55;56.13;99080.52;236074;1195;138560;-59
2021/10/31 02:24:11;;;;;;;17.20;10.80;;;;;;;8.52;56.23;99083.45;236197;1195;139051;-57
2021/10/31 02:29:14;;;;;;;19.20;10.80;;;;;;;8.52;56.35;99088.45;236209;1195;138912;-57
2021/10/31 02:34:17;;;;;;;18.00;10.40;;;;;;;8.48;56.31;99091.45;236275;1195;138631;-59
2021/10/31 02:39:20;;;;;;;21.80;10.70;;;;;;;8.43;56.58;99098.30;236407;1194;138521;-57
2021/10/31 02:44:23;;;;;;;20.40;11.20;;;;;;;8.40;56.57;99100.69;236292;1195;140137;-59
2021/10/31 02:49:28;;;;;;;21.40;12.40;;;;;;;8.37;56.74;99101.04;236425;1195;140422;-59
2021/10/31 02:54:51;;;;;;;27.90;13.40;;;;;;;8.29;56.47;99098.80;236221;1194;140908;-60
2021/10/31 03:00:00;;;;;;;22.80;14.20;;;;;;;8.15;56.37;99096.34;236208;1195;139782;-60
2021/10/31 03:05:03;;;;;;;26.00;15.20;;;;;;;8.03;56.40;99099.59;236272;1194;139449;-60
2021/10/31 03:10:07;;;;;;;26.80;15.00;;;;;;;7.96;56.46;99107.22;236175;1195;140049;-57
2021/10/31 03:15:10;;;;;;;23.00;13.70;;;;;;;7.93;56.63;99111.92;236206;1195;139035;-59
2021/10/31 03:20:14;;;;;;;24.80;14.00;;;;;;;7.90;56.62;99118.65;235706;1195;139011;-57
2021/10/31 03:25:17;;;;;;;29.00;13.80;;;;;;;7.86;56.91;99125.18;235992;1195;139309;-57
2021/10/31 03:30:20;;;;;;;22.10;12.70;;;;;;;7.83;56.96;99117.36;235740;1196;139884;-57
2021/10/31 03:35:24;;;;;;;22.50;13.00;;;;;;;7.79;57.05;99120.41;235913;1195;139902;-59
2021/10/31 03:40:27;;;;;;;20.70;13.10;;;;;;;7.75;57.22;99122.54;236198;1195;139881;-58
2021/10/31 03:45:30;;;;;;;21.20;11.80;;;;;;;7.72;57.31;99122.16;236078;1195;138195;-58
2021/10/31 03:50:33;;;;;;;23.30;11.80;;;;;;;7.70;57.43;99126.14;236379;1187;138411;-58
2021/10/31 03:55:37;;;;;;;22.60;13.50;;;;;;;7.64;57.52;99128.76;236486;1194;138921;-56
2021/10/31 04:00:40;;;;;;;22.60;13.80;;;;;;;7.56;57.47;99124.67;236458;1195;138615;-61
2021/10/31 04:05:44;;;;;;;24.60;13.60;;;;;;;7.51;57.38;99122.46;236529;1195;139169;-59
2021/10/31 04:10:47;;;;;;;23.10;14.50;;;;;;;7.44;57.36;99125.44;236020;1195;138885;-61
2021/10/31 04:15:51;;;;;;;28.90;14.70;;;;;;;7.38;57.51;99128.41;236410;1195;139198;-61
2021/10/31 04:20:55;;;;;;;25.70;14.20;;;;;;;7.31;57.46;99126.42;236394;1195;138433;-60
2021/10/31 04:25:59;;;;;;;23.50;13.30;;;;;;;7.25;57.59;99116.83;236086;1195;138671;-58
2021/10/31 04:31:02;;;;;;;24.80;13.90;;;;;;;7.18;57.72;99120.17;236544;1194;138791;-59
2021/10/31 04:36:07;;;;;;;27.80;14.20;;;;;;;7.16;57.92;99113.92;236324;1194;140089;-58
2021/10/31 04:41:10;;;;;;;26.50;14.30;;;;;;;7.13;57.82;99111.05;235788;1190;140497;-56
2021/10/31 04:46:13;;;;;;;24.10;14.10;;;;;;;7.10;57.92;99111.17;236021;1195;138706;-60
2021/10/31 04:51:16;;;;;;;24.70;13.80;;;;;;;7.07;58.23;99108.67;236403;1195;139460;-59
2021/10/31 04:56:22;;;;;;;24.00;13.10;;;;;;;7.08;58.14;99110.40;236318;1195;139585;-60
2021/10/31 05:01:26;;;;;;;27.80;14.10;;;;;;;7.14;58.34;99118.21;236260;1195;139974;-58
2021/10/31 05:06:29;;;;;;;23.70;13.70;;;;;;;7.18;58.42;99111.88;236148;1195;138839;-59
2021/10/31 05:11:32;;;;;;;23.40;13.10;;;;;;;7.21;58.43;99117.02;235729;1195;140535;-59
2021/10/31 05:16:37;;;;;;;25.30;13.80;;;;;;;7.25;58.53;99123.35;236200;1195;138793;-59
2021/10/31 05:21:40;;;;;;;20.90;13.50;;;;;;;7.26;58.50;99122.09;236009;1195;138742;-60
2021/10/31 05:26:43;;;;;;;25.70;14.50;;;;;;;7.22;58.28;99127.91;235883;1195;138865;-59
2021/10/31 05:31:46;;;;;;;28.20;14.90;;;;;;;7.11;58.06;99133.55;236263;1195;138985;-60
2021/10/31 05:36:49;;;;;;;25.80;15.00;;;;;;;7.03;58.00;99131.23;236293;1195;138686;-59
2021/10/31 05:41:52;;;;;;;27.10;14.50;;;;;;;6.96;58.07;99136.17;236177;1195;139540;-60
2021/10/31 05:46:55;;;;;;;23.50;14.80;;;;;;;6.85;58.00;99149.02;235927;1195;138876;-58
2021/10/31 05:51:59;;;;;;;27.90;14.80;;;;;;;6.76;58.36;99161.77;236511;1195;138462;-61
2021/10/31 05:57:04;;;;;;;23.00;14.00;;;;;;;6.65;58.17;99161.20;236434;1195;140383;-61
2021/10/31 06:02:12;;;;;;;25.10;14.50;;;;;;;6.58;58.52;99163.27;235738;1194;139907;-61
2021/10/31 06:07:16;;;;;;;27.90;15.40;;;;;;;6.53;58.47;99166.30;236273;1195;138590;-59
2021/10/31 06:12:19;;;;;;;27.50;15.50;;;;;;;6.51;58.61;99172.02;236303;1195;139976;-60
2021/10/31 06:17:22;;;;;;;28.20;17.00;;;;;;;6.51;59.03;99179.42;235938;1195;139004;-60
2021/10/31 06:22:28;;;;;;;28.50;15.30;;;;;;;6.53;59.02;99172.48;236025;1195;138996;-58
2021/10/31 06:27:31;;;;;;;29.90;15.20;;;;;;;6.55;59.12;99176.77;236159;1195;140307;-56
2021/10/31 06:32:35;;;;;;;29.90;15.50;;;;;;;6.60;59.38;99177.09;236185;1195;138617;-56
2021/10/31 06:37:38;;;;;;;29.50;15.50;;;;;;;6.65;59.74;99181.98;236101;1194;140778;-59
2021/10/31 06:42:42;;;;;;;22.70;14.60;;;;;;;6.78;59.77;99187.27;236117;1195;139690;-61
2021/10/31 06:47:45;;;;;;;24.80;15.00;;;;;;;7.00;59.95;99190.87;236194;1195;139373;-59
2021/10/31 06:52:50;;;;;;;25.30;14.60;;;;;;;7.20;59.96;99186.93;236254;1194;138700;-60
2021/10/31 06:57:55;;;;;;;19.00;11.20;;;;;;;7.40;59.88;99184.42;236397;1194;139651;-58
2021/10/31 07:02:58;;;;;;;23.80;14.30;;;;;;;7.53;59.81;99186.27;236010;1195;139035;-59
2021/10/31 07:08:01;;;;;;;22.50;13.20;;;;;;;7.70;60.07;99185.28;236339;1195;139013;-62
2021/10/31 07:13:04;;;;;;;20.60;13.20;;;;;;;7.89;59.96;99185.42;236129;1195;139546;-60
2021/10/31 07:18:07;;;;;;;23.30;13.60;;;;;;;8.08;60.04;99184.88;236475;1194;139113;-62
2021/10/31 07:23:10;;;;;;;79.90;49.20;;;;;;;8.27;60.11;99191.16;235979;1195;139618;-60
2021/10/31 07:28:13;;;;;;;36.50;20.00;;;;;;;8.50;60.41;99193.05;236095;1195;138334;-60
2021/10/31 07:33:17;;;;;;;20.10;11.90;;;;;;;8.74;60.29;99195.66;235871;1195;139102;-59
2021/10/31 07:38:20;;;;;;;19.70;12.90;;;;;;;9.00;60.29;99192.71;236120;1195;140438;-60
2021/10/31 07:43:23;;;;;;;19.50;11.70;;;;;;;9.21;59.86;99191.09;236222;1195;138805;-59
2021/10/31 07:48:26;;;;;;;78.90;52.00;;;;;;;9.40;59.83;99189.33;236299;1194;141552;-61
2021/10/31 07:53:29;;;;;;;25.80;15.90;;;;;;;9.67;59.86;99183.25;235295;1195;138424;-60
2021/10/31 07:58:32;;;;;;;27.00;14.50;;;;;;;9.91;59.57;99179.05;235764;1195;140528;-59
2021/10/31 08:03:36;;;;;;;137.40;86.70;;;;;;;10.08;59.45;99187.83;236370;1195;139019;-60
2021/10/31 08:08:39;;;;;;;40.50;24.20;;;;;;;10.30;59.66;99193.13;236226;1194;139149;-60
2021/10/31 08:13:42;;;;;;;22.80;15.20;;;;;;;10.51;59.36;99194.04;235897;1195;139261;-60
2021/10/31 08:18:44;;;;;;;22.70;13.80;;;;;;;10.64;59.11;99194.10;236064;1195;138963;-60
2021/10/31 08:23:48;;;;;;;22.20;13.40;;;;;;;10.77;59.02;99185.88;236532;1195;139028;-60
2021/10/31 08:28:51;;;;;;;21.20;13.90;;;;;;;10.91;58.86;99184.17;235369;1195;138920;-58
2021/10/31 08:33:58;;;;;;;25.50;13.20;;;;;;;11.06;58.66;99181.45;235597;1195;138662;-60
2021/10/31 08:39:01;;;;;;;20.90;12.90;;;;;;;11.22;58.62;99179.23;236308;1195;138906;-61
2021/10/31 08:44:06;;;;;;;21.20;13.00;;;;;;;11.39;58.37;99172.13;236316;1194;139054;-60
2021/10/31 08:49:09;;;;;;;26.50;13.90;;;;;;;11.58;58.07;99163.79;236120;1195;139398;-59
2021/10/31 08:54:12;;;;;;;24.00;14.50;;;;;;;11.78;57.68;99160.76;235980;1189;138923;-58
2021/10/31 08:59:15;;;;;;;298.50;205.30;;;;;;;12.02;58.01;99158.29;236293;1195;139480;-60
2021/10/31 09:04:18;;;;;;;62.60;39.70;;;;;;;12.36;58.05;99159.25;235889;1194;139356;-62
2021/10/31 09:09:24;;;;;;;26.60;16.00;;;;;;;12.53;57.13;99156.13;236224;1195;138936;-60
2021/10/31 09:14:29;;;;;;;27.40;14.80;;;;;;;12.69;57.08;99147.52;235799;1195;139829;-60
2021/10/31 09:19:33;;;;;;;24.20;13.60;;;;;;;12.83;56.71;99145.83;236019;1195;138756;-60
2021/10/31 09:24:36;;;;;;;22.80;13.40;;;;;;;13.01;56.53;99136.96;235833;1195;138868;-62
2021/10/31 09:29:40;;;;;;;25.80;13.00;;;;;;;13.13;56.62;99128.07;236363;1195;138794;-58
2021/10/31 09:34:45;;;;;;;24.80;13.30;;;;;;;13.29;56.19;99131.23;236219;1194;139299;-60
2021/10/31 09:39:49;;;;;;;15.60;9.90;;;;;;;13.44;55.77;99123.06;236258;1195;138911;-62
2021/10/31 09:44:52;;;;;;;12.90;8.20;;;;;;;13.56;55.34;99117.39;236248;1195;138759;-62
2021/10/31 09:49:55;;;;;;;106.30;66.30;;;;;;;13.71;54.93;99113.72;236406;1194;138459;-61
2021/10/31 09:54:58;;;;;;;451.60;315.20;;;;;;;13.92;54.94;99108.43;236217;1195;138901;-61
2021/10/31 10:00:02;;;;;;;30.40;21.50;;;;;;;14.20;54.29;99100.64;236509;1194;139738;-61
2021/10/31 10:05:06;;;;;;;12.00;8.00;;;;;;;14.35;53.61;99088.73;236052;1195;139078;-60
2021/10/31 10:10:12;;;;;;;14.30;9.80;;;;;;;14.52;53.03;99084.11;236194;1195;138795;-63
2021/10/31 10:15:15;;;;;;;9.80;6.70;;;;;;;14.70;52.87;99078.27;236328;1195;138860;-63
2021/10/31 10:20:20;;;;;;;417.40;299.80;;;;;;;14.89;52.45;99074.94;236248;1195;139020;-64
2021/10/31 10:25:41;;;;;;;55.30;30.80;;;;;;;15.22;53.26;99073.55;236213;1195;139771;-61
2021/10/31 10:30:44;;;;;;;38.80;27.70;;;;;;;16.08;55.32;99072.95;235148;1195;139051;-62
2021/10/31 10:35:58;;;;;;;182.40;123.40;;;;;;;16.97;53.82;99067.85;235901;1195;142608;-60
2021/10/31 10:41:03;;;;;;;18.70;12.20;;;;;;;17.17;52.02;99061.95;235823;1195;139494;-58
2021/10/31 10:46:13;;;;;;;13.40;8.60;;;;;;;17.35;51.40;99053.17;236166;1195;139277;-60
2021/10/31 10:51:17;;;;;;;15.60;9.30;;;;;;;17.21;50.50;99048.48;235885;1195;138701;-58
2021/10/31 10:56:20;;;;;;;15.50;8.40;;;;;;;17.04;50.32;99043.00;234750;1195;139011;-62
2021/10/31 11:01:24;;;;;;;22.90;12.60;;;;;;;16.95;50.46;99033.99;234850;1195;139690;-59
2021/10/31 11:06:28;;;;;;;19.10;11.20;;;;;;;17.38;51.64;99024.17;235915;1195;139244;-58
2021/10/31 11:11:31;;;;;;;21.20;11.70;;;;;;;17.87;51.35;99015.05;236056;1195;139510;-60
2021/10/31 11:16:34;;;;;;;29.80;12.10;;;;;;;18.26;50.69;99008.73;236131;1195;139913;-61
2021/10/31 11:21:37;;;;;;;27.90;9.80;;;;;;;18.55;50.17;98998.94;236104;1195;140028;-59
2021/10/31 11:26:43;;;;;;;15.30;8.10;;;;;;;18.74;49.69;98990.09;236134;1188;138931;-60
2021/10/31 11:31:46;;;;;;;21.40;9.80;;;;;;;18.87;48.64;98984.04;236262;1195;139608;-59
2021/10/31 11:36:50;;;;;;;85.10;53.00;;;;;;;18.95;48.13;98978.39;235438;1195;139579;-59
2021/10/31 11:41:57;;;;;;;9.70;5.80;;;;;;;18.74;46.84;98979.34;235536;1196;138637;-61
2021/10/31 11:47:20;;;;;;;8.90;5.70;;;;;;;18.51;46.28;98969.52;235840;1195;138829;-60
2021/10/31 11:52:42;;;;;;;9.00;5.40;;;;;;;18.34;45.83;98962.55;235657;1195;139431;-55
2021/10/31 11:57:49;;;;;;;9.30;6.40;;;;;;;18.22;45.67;98958.84;235551;1196;139146;-58
2021/10/31 12:03:03;;;;;;;7.80;5.10;;;;;;;18.10;45.39;98960.64;235584;1194;139248;-60
2021/10/31 12:08:55;;;;;;;13.10;6.70;;;;;;;17.98;45.38;98952.42;236275;1195;138571;-57
2021/10/31 12:14:02;;;;;;;24.30;16.30;;;;;;;18.16;46.54;98945.55;236066;1195;138751;-55
2021/10/31 12:19:10;;;;;;;18.50;10.20;;;;;;;18.19;46.65;98936.10;236173;1195;139176;-59
2021/10/31 12:24:18;;;;;;;16.90;7.90;;;;;;;18.30;46.53;98926.23;236351;1195;138952;-58
2021/10/31 12:29:25;;;;;;;321.30;273.50;;;;;;;18.34;46.71;98927.33;236106;1195;138778;-59
2021/10/31 12:34:41;;;;;;;65.10;47.60;;;;;;;18.31;46.78;98924.80;236136;1195;139530;-57
2021/10/31 12:39:44;;;;;;;16.00;10.80;;;;;;;18.18;46.34;98920.38;236232;1194;139786;-58
2021/10/31 12:44:52;;;;;;;19.10;9.80;;;;;;;18.02;45.99;98914.55;236146;1190;139107;-60
2021/10/31 12:50:12;;;;;;;12.90;8.70;;;;;;;17.87;46.10;98905.94;236170;1195;138814;-61
2021/10/31 12:55:18;;;;;;;13.30;7.40;;;;;;;17.73;46.03;98900.59;236393;1195;139655;-60
2021/10/31 13:00:24;;;;;;;52.80;39.80;;;;;;;17.61;46.02;98892.20;236405;1195;139413;-60
2021/10/31 13:05:34;;;;;;;43.90;30.50;;;;;;;17.67;47.01;98887.34;236037;1194;139057;-60
2021/10/31 13:10:41;;;;;;;30.40;19.90;;;;;;;18.16;47.92;98888.59;235536;1195;139081;-60
2021/10/31 13:15:58;;;;;;;15.50;9.90;;;;;;;18.59;47.74;98883.05;235905;1195;138799;-61
2021/10/31 13:21:07;;;;;;;15.00;8.80;;;;;;;18.65;46.57;98876.49;236329;1195;138796;-62
2021/10/31 13:26:12;;;;;;;10.50;7.30;;;;;;;18.47;45.97;98876.67;236385;1195;140387;-57
2021/10/31 13:31:22;;;;;;;215.10;183.80;;;;;;;18.20;45.51;98871.40;236394;1195;139035;-59
2021/10/31 13:36:29;;;;;;;40.80;29.70;;;;;;;18.01;46.21;98865.26;236273;1195;141225;-59
2021/10/31 13:41:38;;;;;;;16.80;12.60;;;;;;;18.09;47.20;98860.92;236365;1187;139367;-59
2021/10/31 13:46:45;;;;;;;20.60;15.70;;;;;;;18.16;47.08;98864.58;236399;1194;139631;-59
2021/10/31 13:51:56;;;;;;;10.10;8.00;;;;;;;18.09;46.94;98862.20;235498;1195;138753;-59
2021/10/31 13:56:59;;;;;;;12.70;7.80;;;;;;;17.87;46.22;98856.73;236410;1195;140126;-59
2021/10/31 14:02:14;;;;;;;8.60;6.70;;;;;;;17.62;46.47;98851.75;235111;1195;138612;-60
2021/10/31 14:07:18;;;;;;;10.10;6.90;;;;;;;17.40;46.55;98853.39;235684;1195;139204;-60
2021/10/31 14:12:26;;;;;;;11.10;6.50;;;;;;;17.20;46.89;98849.77;236363;1195;139631;-60
2021/10/31 14:17:31;;;;;;;10.00;6.40;;;;;;;17.00;46.79;98846.52;236334;1195;138699;-60
2021/10/31 14:22:47;;;;;;;10.90;7.00;;;;;;;16.85;46.86;98844.92;235637;1195;138558;-60
2021/10/31 14:28:03;;;;;;;12.00;6.90;;;;;;;16.72;46.97;98844.23;235822;1195;139424;-61
2021/10/31 14:33:17;;;;;;;;;;;;;;;16.62;47.15;98839.45;236265;1195;140074;-60
2021/10/31 14:38:20;;;;;;;12.70;6.80;;;;;;;16.55;47.54;98836.84;236313;1195;124873;-60
2021/10/31 14:43:24;;;;;;;11.10;7.40;;;;;;;16.44;47.60;98835.99;235590;1195;139559;-61
2021/10/31 14:48:28;;;;;;;10.70;6.80;;;;;;;16.35;47.75;98831.31;235956;1196;139243;-61
2021/10/31 14:53:32;;;;;;;10.30;6.70;;;;;;;16.26;47.76;98825.95;235546;1195;138559;-60
2021/10/31 14:58:35;;;;;;;9.00;7.00;;;;;;;16.18;48.09;98822.58;236198;1195;139370;-59
2021/10/31 15:03:38;;;;;;;299.50;194.80;;;;;;;16.04;47.86;98817.67;236102;1195;140399;-60
2021/10/31 15:08:42;;;;;;;65.80;47.40;;;;;;;15.95;48.07;98812.67;236051;1195;140171;-60
2021/10/31 15:13:45;;;;;;;25.70;11.80;;;;;;;16.01;49.69;98813.27;235691;1195;139411;-59
2021/10/31 15:18:48;;;;;;;23.20;12.50;;;;;;;16.38;50.81;98807.33;234842;1195;138485;-60
2021/10/31 15:23:52;;;;;;;257.70;220.80;;;;;;;17.05;51.04;98803.44;236806;1195;140818;-59
2021/10/31 15:28:55;;;;;;;27.00;19.20;;;;;;;17.20;49.01;98793.92;236463;1195;139471;-60
2021/10/31 15:33:58;;;;;;;14.40;9.70;;;;;;;16.81;47.83;98794.67;235646;1196;138725;-59
2021/10/31 15:39:02;;;;;;;17.20;9.20;;;;;;;16.40;47.64;98794.44;236015;1195;139261;-60
2021/10/31 15:44:08;;;;;;;52.10;35.30;;;;;;;16.06;47.69;98796.29;236378;1195;138799;-60
2021/10/31 15:49:11;;;;;;;43.80;30.50;;;;;;;15.81;48.02;98789.50;236207;1195;139349;-59
2021/10/31 15:54:14;;;;;;;16.30;10.20;;;;;;;15.61;48.02;98785.88;236280;1195;140066;-60
2021/10/31 15:59:17;;;;;;;17.00;9.90;;;;;;;15.32;47.92;98779.05;236193;1195;139247;-59
2021/10/31 16:04:20;;;;;;;19.40;10.30;;;;;;;15.06;48.03;98772.73;235853;1195;139082;-61
2021/10/31 16:09:24;;;;;;;16.80;9.20;;;;;;;14.81;48.35;98776.08;236230;1195;138569;-59
2021/10/31 16:14:27;;;;;;;14.40;9.40;;;;;;;14.60;48.63;98777.42;236415;1195;138802;-60
2021/10/31 16:19:30;;;;;;;14.90;9.80;;;;;;;14.41;48.75;98775.91;236266;1195;139188;-60
2021/10/31 16:24:33;;;;;;;16.40;10.10;;;;;;;14.25;49.02;98772.46;236057;1195;139251;-59
2021/10/31 16:29:42;;;;;;;19.70;10.80;;;;;;;14.08;49.13;98765.27;236028;1195;138608;-62
2021/10/31 16:35:08;;;;;;;14.90;10.70;;;;;;;13.91;49.33;98765.88;236185;1195;139221;-61
2021/10/31 16:40:15;;;;;;;293.50;186.10;;;;;;;13.77;49.69;98761.16;235759;1195;139026;-60
2021/10/31 16:45:23;;;;;;;30.40;17.90;;;;;;;13.73;50.05;98760.54;236336;1195;140156;-59
2021/10/31 16:50:26;;;;;;;18.10;12.50;;;;;;;13.62;50.01;98752.56;235922;1195;139301;-62
2021/10/31 16:55:30;;;;;;;22.30;12.90;;;;;;;13.47;50.17;98752.23;235752;1195;138794;-60
2021/10/31 17:00:34;;;;;;;23.70;13.60;;;;;;;13.30;50.13;98753.41;236389;1195;139546;-60
2021/10/31 17:05:37;;;;;;;20.50;12.60;;;;;;;13.17;50.56;98755.17;235857;1195;138798;-60
2021/10/31 17:10:45;;;;;;;24.90;14.20;;;;;;;13.01;50.65;98748.35;235897;1195;139983;-61
2021/10/31 17:15:50;;;;;;;25.00;15.80;;;;;;;12.85;50.88;98746.77;235843;1195;139866;-59
2021/10/31 17:20:56;;;;;;;28.70;17.00;;;;;;;12.70;50.87;98740.54;235920;1195;139612;-61
2021/10/31 17:25:59;;;;;;;25.40;16.10;;;;;;;12.57;51.07;98744.75;236395;1195;138904;-59
2021/10/31 17:31:02;;;;;;;28.10;17.00;;;;;;;12.45;51.55;98752.41;236292;1195;139370;-59
2021/10/31 17:36:07;;;;;;;41.00;24.00;;;;;;;12.39;52.14;98751.09;236192;1195;140331;-60
2021/10/31 17:41:10;;;;;;;34.70;19.50;;;;;;;12.42;52.11;98748.34;235927;1195;139213;-61
2021/10/31 17:46:16;;;;;;;32.80;19.40;;;;;;;12.30;51.95;98747.14;236180;1195;139745;-60
2021/10/31 17:51:20;;;;;;;34.60;19.80;;;;;;;12.12;52.06;98742.91;235945;1195;140726;-60
2021/10/31 17:56:24;;;;;;;34.50;20.10;;;;;;;11.95;52.22;98742.23;235129;1195;142004;-60
2021/10/31 18:01:27;;;;;;;33.10;20.20;;;;;;;11.78;52.53;98741.63;235862;1195;138818;-59
2021/10/31 18:06:31;;;;;;;30.00;19.90;;;;;;;11.62;52.66;98740.44;235731;1195;139132;-59
2021/10/31 18:11:37;;;;;;;32.10;20.10;;;;;;;11.48;52.78;98741.48;235736;1195;138383;-58
2021/10/31 18:16:40;;;;;;;;;;;;;;;11.33;53.16;98732.38;236255;1195;138984;-60
2021/10/31 18:21:44;;;;;;;40.60;21.30;;;;;;;11.20;53.43;98730.41;236198;1190;125313;-60
2021/10/31 18:26:47;;;;;;;37.30;21.50;;;;;;;11.17;53.62;98726.95;236045;1195;139433;-60
2021/10/31 18:31:50;;;;;;;35.40;21.30;;;;;;;11.02;53.72;98729.33;236153;1195;139587;-59
2021/10/31 18:37:00;;;;;;;46.40;26.20;;;;;;;10.95;54.38;98727.54;236127;1195;140935;-60
2021/10/31 18:42:05;;;;;;;40.50;22.80;;;;;;;10.98;54.16;98723.59;236099;1195;138866;-60
2021/10/31 18:47:08;;;;;;;39.50;23.30;;;;;;;10.82;53.89;98727.02;236161;1195;139559;-59
2021/10/31 18:52:12;;;;;;;45.40;25.40;;;;;;;10.66;54.30;98728.27;235894;1195;138835;-60
2021/10/31 18:57:15;;;;;;;49.00;27.90;;;;;;;10.52;54.12;98720.34;235684;1195;139650;-59
2021/10/31 19:02:19;;;;;;;47.30;26.70;;;;;;;10.35;54.35;98716.65;236383;1195;139617;-59
2021/10/31 19:07:22;;;;;;;48.30;28.10;;;;;;;10.18;54.57;98711.71;236287;1195;138845;-59
2021/10/31 19:12:25;;;;;;;44.40;26.80;;;;;;;10.04;54.69;98711.91;235588;1195;138953;-60
2021/10/31 19:17:28;;;;;;;48.20;27.10;;;;;;;9.91;54.89;98718.11;236201;1195;139128;-58
2021/10/31 19:22:32;;;;;;;50.10;28.50;;;;;;;9.80;55.26;98715.81;236047;1195;138251;-61
2021/10/31 19:27:35;;;;;;;49.50;28.90;;;;;;;9.72;55.23;98705.52;236170;1194;138884;-58
2021/10/31 19:32:39;;;;;;;49.20;30.30;;;;;;;9.61;55.59;98704.80;235870;1195;138639;-59
2021/10/31 19:37:42;;;;;;;54.90;31.60;;;;;;;9.49;55.61;98703.11;235927;1195;138522;-61
2021/10/31 19:42:49;;;;;;;57.60;32.60;;;;;;;9.39;55.68;98689.00;236018;1195;139256;-60
2021/10/31 19:47:54;;;;;;;52.50;31.60;;;;;;;9.28;55.89;98686.15;236148;1195;139560;-59
2021/10/31 19:52:57;;;;;;;57.60;34.00;;;;;;;9.18;56.02;98688.05;236129;1195;138779;-61
2021/10/31 19:58:01;;;;;;;55.90;33.90;;;;;;;9.06;56.25;98683.64;236077;1195;139554;-61
2021/10/31 20:03:04;;;;;;;65.30;34.70;;;;;;;8.97;56.32;98678.72;235989;1195;140046;-59
2021/10/31 20:08:08;;;;;;;61.70;36.20;;;;;;;8.88;56.31;98675.17;235995;1195;138798;-59
2021/10/31 20:13:11;;;;;;;61.50;34.50;;;;;;;8.81;56.32;98671.39;235870;1189;138769;-60
2021/10/31 20:18:17;;;;;;;72.80;40.90;;;;;;;8.80;57.20;98673.36;235330;1196;138666;-61
2021/10/31 20:23:20;;;;;;;68.80;38.10;;;;;;;8.91;57.13;98674.65;235805;1195;138489;-59
2021/10/31 20:28:23;;;;;;;66.30;37.70;;;;;;;8.84;57.03;98675.96;236076;1195;138462;-59
2021/10/31 20:33:26;;;;;;;62.90;36.30;;;;;;;8.75;56.82;98669.43;236036;1195;138261;-60
2021/10/31 20:38:29;;;;;;;63.00;38.10;;;;;;;8.62;56.84;98661.73;236074;1195;138595;-60
2021/10/31 20:43:32;;;;;;;68.50;39.40;;;;;;;8.49;57.06;98661.77;235671;1195;138690;-60
2021/10/31 20:48:36;;;;;;;69.00;39.90;;;;;;;8.40;57.24;98662.50;236216;1195;138572;-59
2021/10/31 20:53:39;;;;;;;77.70;42.80;;;;;;;8.30;57.20;98658.45;236399;1194;139888;-60
2021/10/31 20:58:51;;;;;;;76.40;42.80;;;;;;;8.20;57.22;98653.90;236302;1195;138816;-59
2021/10/31 21:03:54;;;;;;;76.60;42.60;;;;;;;8.14;57.39;98648.77;236148;1195;138957;-58
2021/10/31 21:08:58;;;;;;;77.90;41.70;;;;;;;8.07;57.47;98648.88;235814;1195;138618;-61
2021/10/31 21:14:04;;;;;;;97.40;55.20;;;;;;;8.05;58.12;98646.33;236216;1195;138261;-62
2021/10/31 21:19:07;;;;;;;74.70;41.70;;;;;;;8.18;58.17;98633.20;236311;1194;138938;-61
2021/10/31 21:24:14;;;;;;;69.70;41.60;;;;;;;8.16;57.68;98627.85;235930;1195;139042;-59
2021/10/31 21:29:17;;;;;;;71.30;41.30;;;;;;;8.06;57.50;98624.70;236326;1195;139183;-58
2021/10/31 21:34:23;;;;;;;71.40;41.80;;;;;;;7.93;57.64;98618.73;236315;1194;138782;-58
2021/10/31 21:39:29;;;;;;;78.60;42.20;;;;;;;7.84;57.85;98614.31;236390;1194;139909;-60
2021/10/31 21:44:33;;;;;;;70.10;40.40;;;;;;;7.78;57.93;98615.36;236249;1195;139537;-58
2021/10/31 21:49:40;;;;;;;72.60;41.60;;;;;;;7.69;58.02;98610.06;236157;1195;139135;-60
2021/10/31 21:54:43;;;;;;;70.20;39.00;;;;;;;7.57;58.13;98603.70;235911;1195;140622;-59
2021/10/31 21:59:46;;;;;;;70.30;39.70;;;;;;;7.46;58.25;98595.48;236436;1195;138545;-60
2021/10/31 22:04:49;;;;;;;65.90;39.50;;;;;;;7.38;58.41;98596.65;236336;1195;138719;-60
2021/10/31 22:09:53;;;;;;;72.80;41.50;;;;;;;7.33;58.53;98594.27;236393;1195;139977;-60
2021/10/31 22:14:56;;;;;;;64.00;38.10;;;;;;;7.27;58.76;98594.95;236056;1195;140420;-60
2021/10/31 22:19:59;;;;;;;66.70;37.40;;;;;;;7.23;58.64;98587.42;236368;1195;138550;-59
2021/10/31 22:25:02;;;;;;;69.60;39.70;;;;;;;7.17;58.97;98578.95;236285;1195;138896;-59
2021/10/31 22:30:06;;;;;;;69.60;38.40;;;;;;;7.13;58.97;98578.30;235971;1195;138640;-60
2021/10/31 22:35:10;;;;;;;68.10;39.00;;;;;;;7.07;59.02;98575.97;236476;1195;138806;-64
2021/10/31 22:40:16;;;;;;;73.90;39.80;;;;;;;7.00;59.06;98568.64;235881;1195;139607;-60
2021/10/31 22:45:19;;;;;;;70.90;40.50;;;;;;;6.92;58.94;98566.05;236466;1195;138367;-60
2021/10/31 22:50:22;;;;;;;66.60;39.00;;;;;;;6.83;58.95;98563.33;236240;1195;139306;-61
2021/10/31 22:55:25;;;;;;;69.70;39.00;;;;;;;6.76;58.91;98564.95;236344;1195;140314;-61
2021/10/31 23:00:47;;;;;;;72.80;38.30;;;;;;;6.67;58.95;98557.55;236395;1195;138840;-59
2021/10/31 23:05:51;;;;;;;69.20;39.30;;;;;;;6.58;58.77;98559.76;236139;1195;139567;-60